Time;durP1;ratioP1;P1;durP2;ratioP2;P2;SDS_P1;SDS_P2;PMS_P1;PMS_P2;Temp;Humidity;BMP_temperature;BMP_pressure;BME280_temperature;BME280_humidity;BME280_pressure;Samples;Min_cycle;Max_cycle;Signal;HPM_P1;HPM_P2
2023/08/10 00:02:20;;;;;;;2.10;2.00;;;14.20;99.90;;;;;;954808;147;27300;-75
2023/08/10 00:04:46;;;;;;;4.67;2.17;;;14.20;99.90;;;;;;952806;147;27443;-76
2023/08/10 00:07:13;;;;;;;2.50;2.40;;;14.10;99.90;;;;;;952960;147;27326;-76
2023/08/10 00:09:40;;;;;;;5.00;2.40;;;14.20;99.90;;;;;;951947;147;27347;-77
2023/08/10 00:12:06;;;;;;;2.77;2.12;;;14.10;99.90;;;;;;953097;147;27308;-76
2023/08/10 00:14:33;;;;;;;2.30;2.10;;;14.10;99.90;;;;;;952865;147;27361;-76
2023/08/10 00:16:59;;;;;;;2.70;2.50;;;14.10;99.90;;;;;;953740;147;27874;-77
2023/08/10 00:19:26;;;;;;;2.90;2.67;;;14.00;99.90;;;;;;952923;147;27298;-76
2023/08/10 00:21:53;;;;;;;3.00;2.00;;;14.00;99.90;;;;;;952628;147;27327;-76
2023/08/10 00:24:19;;;;;;;5.60;2.50;;;14.00;99.90;;;;;;953706;147;27815;-76
2023/08/10 00:26:46;;;;;;;2.43;2.27;;;13.90;99.90;;;;;;954733;147;27443;-76
2023/08/10 00:29:12;;;;;;;2.90;2.60;;;13.90;99.90;;;;;;950741;147;27261;-76
2023/08/10 00:31:39;;;;;;;4.30;2.30;;;13.90;99.90;;;;;;951229;147;27297;-76
2023/08/10 00:34:05;;;;;;;3.73;2.37;;;13.90;99.90;;;;;;953534;147;27316;-76
2023/08/10 00:36:32;;;;;;;2.50;2.30;;;13.90;99.90;;;;;;952892;147;27406;-77
2023/08/10 00:38:59;;;;;;;3.07;2.23;;;13.80;99.90;;;;;;952249;147;27396;-76
2023/08/10 00:41:25;;;;;;;3.60;2.43;;;13.80;99.90;;;;;;953304;147;27316;-77
2023/08/10 00:43:52;;;;;;;3.53;2.40;;;13.80;99.90;;;;;;954920;147;27305;-76
2023/08/10 00:46:18;;;;;;;5.00;2.53;;;13.80;99.90;;;;;;953079;147;27322;-76
2023/08/10 00:48:45;;;;;;;3.07;2.57;;;13.80;99.90;;;;;;951081;147;27419;-76
2023/08/10 00:51:12;;;;;;;3.63;2.90;;;13.80;99.90;;;;;;959206;148;27283;-76
2023/08/10 00:53:38;;;;;;;2.98;2.42;;;13.80;99.90;;;;;;942097;149;27328;-76
2023/08/10 00:56:05;;;;;;;3.10;2.70;;;13.80;99.90;;;;;;940588;151;27472;-76
2023/08/10 00:58:32;;;;;;;2.77;2.50;;;13.80;99.90;;;;;;937335;149;27329;-76
2023/08/10 01:00:58;;;;;;;2.70;2.27;;;13.80;99.90;;;;;;952414;148;27414;-77
2023/08/10 01:03:25;;;;;;;3.10;2.50;;;13.70;99.90;;;;;;951642;148;27300;-76
2023/08/10 01:06:01;;;;;;;4.27;2.30;;;13.80;99.90;;;;;;951306;148;27380;-76
2023/08/10 01:08:42;;;;;;;2.20;2.00;;;13.70;99.90;;;;;;944559;149;27312;-76
2023/08/10 01:11:29;;;;;;;2.60;2.27;;;13.70;99.90;;;;;;915791;154;27492;-77
2023/08/10 01:13:55;;;;;;;2.83;2.40;;;13.70;99.90;;;;;;945813;149;27672;-78
2023/08/10 01:16:22;;;;;;;2.37;2.20;;;13.70;99.90;;;;;;956066;146;27315;-77
2023/08/10 01:18:49;;;;;;;2.20;2.10;;;13.70;99.90;;;;;;955416;146;27244;-76
2023/08/10 01:21:30;;;;;;;2.23;2.03;;;13.60;99.90;;;;;;942031;151;27384;-76
2023/08/10 01:23:56;;;;;;;3.13;2.57;;;13.60;99.90;;;;;;938701;151;27370;-76
2023/08/10 01:26:23;;;;;;;3.50;2.63;;;13.60;99.90;;;;;;941169;151;27403;-75
2023/08/10 01:28:50;;;;;;;2.93;2.33;;;13.60;99.90;;;;;;940504;150;27662;-75
2023/08/10 01:31:16;;;;;;;2.23;2.03;;;13.60;99.90;;;;;;938789;151;27423;-75
2023/08/10 01:33:43;;;;;;;2.40;2.20;;;13.60;99.90;;;;;;935221;152;27377;-76
2023/08/10 01:36:09;;;;;;;2.37;2.20;;;13.60;99.90;;;;;;939459;150;27246;-75
2023/08/10 01:38:36;;;;;;;2.53;2.33;;;13.60;99.90;;;;;;938454;150;27276;-75
2023/08/10 01:41:03;;;;;;;2.83;2.60;;;13.60;99.90;;;;;;942077;151;27356;-76
2023/08/10 01:43:29;;;;;;;4.17;2.23;;;13.60;99.90;;;;;;941510;148;27383;-76
2023/08/10 01:45:56;;;;;;;2.70;2.50;;;13.50;99.90;;;;;;940196;149;27815;-76
2023/08/10 01:48:25;;;;;;;4.70;2.97;;;13.50;99.90;;;;;;944701;148;27437;-75
2023/08/10 01:50:51;;;;;;;4.07;2.53;;;13.50;99.90;;;;;;956011;145;27470;-76
2023/08/10 01:53:18;;;;;;;9.17;3.57;;;13.50;99.90;;;;;;951826;147;27751;-76
2023/08/10 01:55:44;;;;;;;4.40;2.67;;;13.50;99.90;;;;;;952571;147;27397;-76
2023/08/10 01:58:11;;;;;;;2.80;2.17;;;13.50;99.90;;;;;;950664;147;27403;-75
2023/08/10 02:00:38;;;;;;;6.47;1.97;;;13.50;99.90;;;;;;954476;147;27347;-75
2023/08/10 02:03:04;;;;;;;2.53;2.33;;;13.50;99.90;;;;;;952327;147;27340;-76
2023/08/10 02:05:31;;;;;;;2.00;1.90;;;13.40;99.90;;;;;;953199;147;27368;-76
2023/08/10 02:07:57;;;;;;;5.23;2.40;;;13.40;99.90;;;;;;952615;147;27309;-76
2023/08/10 02:10:24;;;;;;;2.40;2.20;;;13.40;99.90;;;;;;953343;147;27331;-75
2023/08/10 02:12:51;;;;;;;6.77;2.30;;;13.40;99.90;;;;;;955300;147;27385;-76
2023/08/10 02:15:17;;;;;;;3.07;2.13;;;13.40;99.90;;;;;;953331;147;27329;-77
2023/08/10 02:17:44;;;;;;;3.10;2.20;;;13.40;99.90;;;;;;953754;147;27370;-75
2023/08/10 02:20:13;;;;;;;2.90;2.47;;;13.40;99.90;;;;;;955082;147;27309;-76
2023/08/10 02:22:46;;;;;;;2.20;2.10;;;13.40;99.90;;;;;;952224;147;27932;-76
2023/08/10 02:25:12;;;;;;;2.37;2.17;;;13.40;99.90;;;;;;954485;147;27713;-76
2023/08/10 02:27:40;;;;;;;2.60;2.40;;;13.40;99.90;;;;;;952872;147;27317;-76
2023/08/10 02:30:06;;;;;;;2.63;2.43;;;13.50;99.90;;;;;;952512;147;27267;-76
2023/08/10 02:32:32;;;;;;;2.50;2.30;;;13.50;99.90;;;;;;953684;147;27346;-76
2023/08/10 02:34:59;;;;;;;3.43;2.37;;;13.50;99.90;;;;;;954608;147;27326;-77
2023/08/10 02:37:25;;;;;;;2.60;2.40;;;13.50;99.90;;;;;;953985;147;27816;-76
2023/08/10 02:39:52;;;;;;;3.67;2.50;;;13.60;99.90;;;;;;954756;147;27390;-76
2023/08/10 02:42:18;;;;;;;3.27;2.63;;;13.60;99.90;;;;;;954656;147;27693;-76
2023/08/10 02:44:45;;;;;;;2.23;2.13;;;13.70;99.90;;;;;;953740;147;27433;-77
2023/08/10 02:47:12;;;;;;;2.53;2.33;;;13.70;99.90;;;;;;955148;147;27241;-76
2023/08/10 02:49:38;;;;;;;2.80;2.40;;;13.80;99.90;;;;;;952692;147;27412;-77
2023/08/10 02:52:05;;;;;;;2.60;2.40;;;13.80;99.90;;;;;;952817;147;27372;-77
2023/08/10 02:54:31;;;;;;;2.47;2.27;;;13.80;99.90;;;;;;953539;147;27754;-76
2023/08/10 02:56:58;;;;;;;2.60;2.40;;;13.90;99.90;;;;;;951854;147;27343;-77
2023/08/10 02:59:25;;;;;;;2.47;2.27;;;13.90;99.90;;;;;;952751;147;27334;-76
2023/08/10 03:01:51;;;;;;;2.33;2.20;;;14.00;99.90;;;;;;952187;147;27398;-76
2023/08/10 03:04:18;;;;;;;2.23;2.07;;;14.00;99.90;;;;;;952771;147;27354;-76
2023/08/10 03:06:44;;;;;;;2.27;1.93;;;14.10;99.90;;;;;;953321;147;27368;-76
2023/08/10 03:09:11;;;;;;;3.47;2.15;;;14.10;99.90;;;;;;952554;147;27433;-77
2023/08/10 03:11:38;;;;;;;2.67;2.47;;;14.10;99.90;;;;;;952255;147;27324;-76
2023/08/10 03:14:04;;;;;;;2.53;2.10;;;14.10;99.90;;;;;;952495;147;27358;-76
2023/08/10 03:16:31;;;;;;;2.30;2.10;;;14.10;99.90;;;;;;954211;147;27454;-76
2023/08/10 03:18:57;;;;;;;2.70;2.00;;;14.20;99.90;;;;;;952946;147;27884;-76
2023/08/10 03:21:24;;;;;;;2.30;1.90;;;14.20;99.90;;;;;;953986;147;27478;-76
2023/08/10 03:23:50;;;;;;;2.20;2.00;;;14.30;99.90;;;;;;955368;147;27257;-76
2023/08/10 03:26:17;;;;;;;2.92;1.90;;;14.30;99.90;;;;;;951402;147;27352;-76
2023/08/10 03:28:44;;;;;;;4.13;2.13;;;14.30;99.90;;;;;;952938;147;27362;-77
2023/08/10 03:31:13;;;;;;;2.00;1.90;;;14.30;99.90;;;;;;952826;147;28663;-77
2023/08/10 03:33:40;;;;;;;4.62;2.12;;;14.30;99.90;;;;;;953812;147;27289;-76
2023/08/10 03:36:06;;;;;;;2.20;2.00;;;14.30;99.90;;;;;;952679;147;27304;-77
2023/08/10 03:38:33;;;;;;;2.40;2.20;;;14.40;99.90;;;;;;953410;147;27351;-77
2023/08/10 03:40:59;;;;;;;2.07;1.97;;;14.40;99.90;;;;;;956436;147;27332;-74
2023/08/10 03:43:26;;;;;;;2.83;2.00;;;14.40;99.90;;;;;;952971;147;27337;-74
2023/08/10 03:45:53;;;;;;;2.10;2.00;;;14.40;99.90;;;;;;953893;147;27257;-74
2023/08/10 03:48:19;;;;;;;2.03;1.93;;;14.40;99.90;;;;;;951702;147;27324;-77
2023/08/10 03:50:46;;;;;;;2.00;1.90;;;14.40;99.90;;;;;;952947;147;27336;-74
2023/08/10 03:53:12;;;;;;;4.87;1.82;;;14.40;99.90;;;;;;956553;146;28197;-74
2023/08/10 03:55:39;;;;;;;2.40;2.20;;;14.40;99.90;;;;;;958723;146;27404;-74
2023/08/10 03:58:06;;;;;;;2.07;1.97;;;14.50;99.90;;;;;;956534;146;27295;-76
2023/08/10 04:00:32;;;;;;;2.00;1.90;;;14.50;99.90;;;;;;937205;150;27373;-77
2023/08/10 04:02:59;;;;;;;2.20;2.10;;;14.50;99.90;;;;;;938463;151;27337;-74
2023/08/10 04:05:27;;;;;;;2.10;2.00;;;14.50;99.90;;;;;;939194;152;27265;-74
2023/08/10 04:07:52;;;;;;;3.10;2.23;;;14.50;99.90;;;;;;939217;152;27322;-74
2023/08/10 04:10:19;;;;;;;2.75;2.30;;;14.50;99.90;;;;;;941907;151;27404;-76
2023/08/10 04:12:45;;;;;;;2.80;2.60;;;14.50;99.90;;;;;;941785;151;27429;-76
2023/08/10 04:15:12;;;;;;;2.05;1.90;;;14.50;99.90;;;;;;940990;151;27349;-74
2023/08/10 04:17:38;;;;;;;2.60;2.40;;;14.50;99.90;;;;;;942088;151;27316;-75
2023/08/10 04:20:08;;;;;;;2.47;2.27;;;14.60;99.90;;;;;;940422;150;27397;-74
2023/08/10 04:22:34;;;;;;;2.30;2.10;;;14.60;99.90;;;;;;942132;151;27356;-74
2023/08/10 04:25:02;;;;;;;2.20;2.10;;;14.60;99.90;;;;;;942805;151;27391;-74
2023/08/10 04:27:27;;;;;;;2.77;2.57;;;14.60;99.90;;;;;;940466;151;27327;-74
2023/08/10 04:29:54;;;;;;;2.77;2.58;;;14.60;99.90;;;;;;940649;150;27313;-74
2023/08/10 04:32:21;;;;;;;3.17;2.33;;;14.60;99.90;;;;;;941389;148;27379;-76
2023/08/10 04:34:47;;;;;;;2.60;2.40;;;14.60;99.90;;;;;;945146;149;27376;-76
2023/08/10 04:37:14;;;;;;;4.70;3.00;;;14.60;99.90;;;;;;945315;149;27337;-74
2023/08/10 04:39:41;;;;;;;2.80;2.60;;;14.60;99.90;;;;;;937862;151;27656;-76
2023/08/10 04:42:07;;;;;;;2.62;2.27;;;14.70;99.90;;;;;;941215;151;28307;-74
2023/08/10 04:44:34;;;;;;;2.50;2.30;;;14.70;99.90;;;;;;942028;151;27872;-77
2023/08/10 04:47:00;;;;;;;2.85;2.65;;;14.70;99.90;;;;;;941677;151;27385;-74
2023/08/10 04:49:28;;;;;;;2.45;2.30;;;14.70;99.90;;;;;;938219;149;27259;-76
2023/08/10 04:51:53;;;;;;;2.92;2.72;;;14.80;99.90;;;;;;960234;144;27447;-76
2023/08/10 04:54:20;;;;;;;4.75;2.45;;;14.80;99.90;;;;;;974056;144;27416;-76
2023/08/10 04:56:47;;;;;;;2.42;2.27;;;14.80;99.90;;;;;;960871;146;27368;-76
2023/08/10 04:59:13;;;;;;;2.45;2.25;;;14.80;99.90;;;;;;970904;144;27259;-76
2023/08/10 05:01:40;;;;;;;2.77;2.50;;;14.80;99.90;;;;;;973623;144;27304;-76
2023/08/10 05:04:06;;;;;;;3.12;2.33;;;14.90;99.90;;;;;;963767;147;27301;-76
2023/08/10 05:06:34;;;;;;;2.65;2.45;;;14.90;99.90;;;;;;958462;146;27372;-76
2023/08/10 05:08:59;;;;;;;3.05;2.75;;;15.00;99.90;;;;;;956430;146;27378;-76
2023/08/10 05:11:26;;;;;;;2.83;2.62;;;15.10;99.90;;;;;;961539;146;27391;-76
2023/08/10 05:13:53;;;;;;;3.00;2.45;;;15.20;99.90;;;;;;970808;144;27346;-76
2023/08/10 05:16:19;;;;;;;3.00;2.80;;;15.40;99.90;;;;;;972216;144;27632;-75
2023/08/10 05:18:46;;;;;;;3.25;2.95;;;15.50;99.90;;;;;;961114;146;27362;-76
2023/08/10 05:21:12;;;;;;;2.98;2.77;;;15.60;99.90;;;;;;971756;144;27318;-76
2023/08/10 05:23:40;;;;;;;2.92;2.72;;;15.80;99.90;;;;;;959743;148;27292;-76
2023/08/10 05:26:08;;;;;;;2.87;2.67;;;15.90;99.90;;;;;;962490;147;27804;-76
2023/08/10 05:28:32;;;;;;;2.92;2.72;;;16.10;99.90;;;;;;961631;148;27963;-76
2023/08/10 05:30:59;;;;;;;2.58;2.47;;;16.30;99.90;;;;;;962091;147;27318;-76
2023/08/10 05:33:25;;;;;;;2.98;2.77;;;16.50;99.90;;;;;;960663;148;27211;-76
2023/08/10 05:35:52;;;;;;;3.55;2.55;;;16.70;99.90;;;;;;960873;147;27286;-76
2023/08/10 05:38:19;;;;;;;2.80;2.60;;;16.90;99.90;;;;;;959751;147;27354;-76
2023/08/10 05:40:45;;;;;;;2.58;2.37;;;17.20;99.90;;;;;;960012;147;27332;-76
2023/08/10 05:43:12;;;;;;;2.62;2.42;;;17.40;99.90;;;;;;960582;148;27262;-76
2023/08/10 05:45:38;;;;;;;2.60;2.45;;;17.60;99.90;;;;;;964045;145;27407;-76
2023/08/10 05:48:11;;;;;;;2.30;2.10;;;17.80;99.90;;;;;;957542;146;27337;-75
2023/08/10 05:50:38;;;;;;;2.90;2.60;;;17.90;99.90;;;;;;961739;148;27335;-76
2023/08/10 05:53:05;;;;;;;3.10;2.80;;;18.00;99.90;;;;;;955338;146;27399;-76
2023/08/10 05:55:31;;;;;;;2.52;2.35;;;18.20;99.90;;;;;;956338;146;27827;-76
2023/08/10 05:57:57;;;;;;;2.62;2.20;;;18.20;99.90;;;;;;957448;146;27828;-76
2023/08/10 06:00:24;;;;;;;4.12;2.55;;;18.30;99.90;;;;;;962969;146;27431;-76
2023/08/10 06:02:51;;;;;;;2.92;2.72;;;18.40;99.90;;;;;;961860;146;27398;-75
2023/08/10 06:05:17;;;;;;;2.77;2.58;;;18.40;99.90;;;;;;964398;148;27371;-74
2023/08/10 06:07:47;;;;;;;2.58;2.37;;;18.50;99.90;;;;;;963961;147;27210;-75
2023/08/10 06:10:10;;;;;;;2.67;2.40;;;18.60;99.90;;;;;;965296;147;27265;-76
2023/08/10 06:12:37;;;;;;;2.30;2.10;;;18.80;99.90;;;;;;962760;148;27321;-74
2023/08/10 06:15:03;;;;;;;3.05;2.60;;;18.90;99.90;;;;;;962591;148;27382;-74
2023/08/10 06:17:30;;;;;;;2.20;2.10;;;19.00;99.90;;;;;;963754;148;27265;-75
2023/08/10 06:19:57;;;;;;;2.47;2.27;;;19.20;99.90;;;;;;963349;147;27382;-76
2023/08/10 06:22:24;;;;;;;2.83;2.62;;;19.40;99.90;;;;;;963169;147;27406;-77
2023/08/10 06:24:50;;;;;;;3.50;2.60;;;19.50;99.90;;;;;;963072;148;27347;-75
2023/08/10 06:27:17;;;;;;;2.42;2.20;;;19.70;99.90;;;;;;963198;148;27305;-76
2023/08/10 06:29:43;;;;;;;2.50;2.30;;;19.90;99.90;;;;;;962129;148;27302;-75
2023/08/10 06:32:10;;;;;;;3.35;2.20;;;20.00;99.90;;;;;;963565;147;27283;-76
2023/08/10 06:34:36;;;;;;;2.55;2.20;;;20.20;99.90;;;;;;960875;147;27346;-75
2023/08/10 06:37:03;;;;;;;2.83;2.05;;;20.30;99.90;;;;;;961938;148;28756;-75
2023/08/10 06:39:29;;;;;;;4.28;2.12;;;20.50;99.90;;;;;;964981;147;27347;-75
2023/08/10 06:41:56;;;;;;;2.70;2.22;;;20.80;99.90;;;;;;964419;146;27215;-76
2023/08/10 06:44:22;;;;;;;2.58;2.37;;;21.20;99.90;;;;;;963820;146;27420;-75
2023/08/10 06:46:49;;;;;;;2.52;2.10;;;21.70;99.90;;;;;;965555;145;27410;-75
2023/08/10 06:49:20;;;;;;;3.60;2.12;;;22.30;99.90;;;;;;965040;146;27272;-75
2023/08/10 06:51:42;;;;;;;1.80;1.70;;;22.90;99.90;;;;;;964763;147;27264;-76
2023/08/10 06:54:09;;;;;;;2.72;2.52;;;23.40;97.70;;;;;;963820;145;27363;-76
2023/08/10 06:56:36;;;;;;;2.00;1.90;;;23.80;95.20;;;;;;964258;147;27358;-75
2023/08/10 06:59:02;;;;;;;2.47;1.95;;;24.10;93.40;;;;;;964610;146;27263;-75
2023/08/10 07:01:29;;;;;;;2.30;2.10;;;24.40;91.30;;;;;;964200;147;27278;-75
2023/08/10 07:03:55;;;;;;;2.12;1.92;;;24.60;89.00;;;;;;964398;146;27310;-76
2023/08/10 07:06:22;;;;;;;3.15;1.90;;;24.70;85.40;;;;;;965457;146;27435;-77
2023/08/10 07:08:52;;;;;;;1.77;1.67;;;24.80;83.20;;;;;;964278;147;28493;-78
2023/08/10 07:11:15;;;;;;;3.12;1.85;;;24.80;82.30;;;;;;963318;147;27744;-76
2023/08/10 07:13:42;;;;;;;2.22;2.02;;;24.90;82.00;;;;;;965732;147;27432;-75
2023/08/10 07:16:08;;;;;;;2.80;1.82;;;24.90;81.70;;;;;;960925;146;27319;-77
2023/08/10 07:18:35;;;;;;;1.82;1.67;;;25.00;81.40;;;;;;964037;147;27322;-74
2023/08/10 07:21:02;;;;;;;2.87;2.12;;;25.10;81.10;;;;;;962631;147;27436;-75
2023/08/10 07:23:28;;;;;;;3.30;2.30;;;25.30;81.40;;;;;;963622;147;27294;-74
2023/08/10 07:25:55;;;;;;;1.62;1.52;;;25.50;80.20;;;;;;965483;146;27207;-75
2023/08/10 07:28:23;;;;;;;2.60;1.77;;;25.70;78.40;;;;;;964548;146;27414;-77
2023/08/10 07:30:48;;;;;;;2.05;1.90;;;25.80;76.80;;;;;;963801;147;27378;-75
2023/08/10 07:33:14;;;;;;;1.80;1.70;;;25.90;75.40;;;;;;965868;147;27211;-74
2023/08/10 07:35:41;;;;;;;1.62;1.45;;;25.90;74.80;;;;;;964946;146;27324;-75
2023/08/10 07:38:07;;;;;;;3.33;1.85;;;26.00;74.60;;;;;;965237;146;27314;-77
2023/08/10 07:40:34;;;;;;;1.65;1.55;;;26.10;74.50;;;;;;964929;147;27451;-75
2023/08/10 07:43:01;;;;;;;1.60;1.50;;;26.10;74.10;;;;;;965710;148;27304;-76
2023/08/10 07:45:27;;;;;;;2.02;1.67;;;26.20;73.90;;;;;;965086;148;27371;-76
2023/08/10 07:47:54;;;;;;;1.15;1.15;;;26.40;73.50;;;;;;963287;147;27704;-76
2023/08/10 07:50:20;;;;;;;1.50;1.40;;;26.60;73.20;;;;;;966148;146;27335;-74
2023/08/10 07:52:47;;;;;;;1.50;1.40;;;26.80;72.90;;;;;;963117;147;27409;-75
2023/08/10 07:55:15;;;;;;;2.15;1.30;;;27.10;72.30;;;;;;953954;146;27328;-76
2023/08/10 07:57:40;;;;;;;1.90;1.60;;;27.40;72.00;;;;;;952186;147;27394;-74
2023/08/10 08:00:07;;;;;;;1.98;1.80;;;27.80;72.40;;;;;;951203;146;27389;-74
2023/08/10 08:02:34;;;;;;;4.87;1.40;;;28.30;72.70;;;;;;952018;149;27331;-77
2023/08/10 08:05:00;;;;;;;1.57;1.47;;;28.90;73.40;;;;;;950612;146;27320;-75
2023/08/10 08:07:27;;;;;;;2.37;1.52;;;29.50;71.80;;;;;;951979;150;27251;-75
2023/08/10 08:09:53;;;;;;;3.02;1.60;;;30.10;69.80;;;;;;950571;146;27292;-77
2023/08/10 08:12:20;;;;;;;2.75;1.62;;;30.70;67.60;;;;;;951081;146;27308;-77
2023/08/10 08:14:46;;;;;;;6.17;1.77;;;31.20;66.00;;;;;;950441;149;26330;-75
2023/08/10 08:17:13;;;;;;;3.60;1.57;;;31.70;65.00;;;;;;950269;146;27446;-76
2023/08/10 08:19:40;;;;;;;2.15;1.40;;;32.10;63.70;;;;;;949411;146;26257;-76
2023/08/10 08:22:06;;;;;;;1.42;1.32;;;32.50;61.40;;;;;;951095;146;27431;-78
2023/08/10 08:24:33;;;;;;;1.82;1.42;;;32.70;59.70;;;;;;949515;147;27348;-77
2023/08/10 08:26:59;;;;;;;1.50;1.40;;;33.00;59.70;;;;;;949824;147;26212;-75
2023/08/10 08:29:26;;;;;;;1.75;1.40;;;33.40;59.30;;;;;;950652;147;27361;-75
2023/08/10 08:31:53;;;;;;;1.50;1.40;;;33.70;58.50;;;;;;952019;146;26190;-76
2023/08/10 08:34:19;;;;;;;1.77;1.50;;;34.00;58.00;;;;;;950377;146;26326;-77
2023/08/10 08:36:46;;;;;;;1.50;1.35;;;34.40;58.00;;;;;;950701;148;26229;-75
2023/08/10 08:39:12;;;;;;;1.72;1.60;;;35.00;58.10;;;;;;949629;150;26273;-76
2023/08/10 08:41:39;;;;;;;1.65;1.32;;;35.70;57.50;;;;;;952156;148;26235;-76
2023/08/10 08:44:06;;;;;;;2.87;1.20;;;36.40;56.70;;;;;;948375;149;26150;-77
2023/08/10 08:46:32;;;;;;;1.30;1.20;;;37.10;56.00;;;;;;949394;148;26245;-75
2023/08/10 08:48:59;;;;;;;1.47;1.37;;;37.90;55.00;;;;;;951157;146;26198;-75
2023/08/10 08:51:25;;;;;;;1.82;1.15;;;38.60;54.10;;;;;;949504;149;26246;-73
2023/08/10 08:53:52;;;;;;;1.17;1.17;;;39.20;52.60;;;;;;951227;146;26306;-73
2023/08/10 08:56:19;;;;;;;3.10;1.02;;;39.80;51.30;;;;;;965193;147;26247;-75
2023/08/10 08:58:45;;;;;;;1.72;1.30;;;40.30;50.10;;;;;;963769;147;26674;-73
2023/08/10 09:01:12;;;;;;;1.47;1.37;;;40.80;49.10;;;;;;964034;147;26289;-73
2023/08/10 09:03:38;;;;;;;1.02;1.02;;;41.20;48.40;;;;;;964020;146;26271;-73
2023/08/10 09:06:05;;;;;;;1.20;1.10;;;41.50;47.20;;;;;;963092;146;26272;-74
2023/08/10 09:08:31;;;;;;;1.50;1.40;;;41.80;46.40;;;;;;963731;146;26283;-75
2023/08/10 09:10:58;;;;;;;1.30;1.20;;;42.20;45.60;;;;;;963274;146;26779;-75
2023/08/10 09:13:25;;;;;;;1.50;1.40;;;42.40;44.90;;;;;;962576;146;26292;-74
2023/08/10 09:16:03;;;;;;;1.40;1.15;;;42.60;44.20;;;;;;963166;147;26309;-74
2023/08/10 09:18:35;;;;;;;1.30;1.17;;;42.70;43.80;;;;;;966985;147;26303;-73
2023/08/10 09:21:20;;;;;;;1.98;1.52;;;43.00;43.50;;;;;;965415;147;26223;-74
2023/08/10 09:23:46;;;;;;;1.42;1.12;;;43.20;42.90;;;;;;966229;147;26238;-75
2023/08/10 09:26:13;;;;;;;2.40;1.20;;;43.40;42.30;;;;;;963353;147;26329;-74
2023/08/10 09:28:40;;;;;;;1.80;1.22;;;43.60;41.50;;;;;;964809;147;26257;-77
2023/08/10 09:31:07;;;;;;;0.95;0.95;;;43.80;41.00;;;;;;966371;146;26272;-77
2023/08/10 09:33:33;;;;;;;1.67;1.50;;;43.90;40.60;;;;;;965319;147;26243;-77
2023/08/10 09:35:59;;;;;;;2.15;1.40;;;44.10;40.30;;;;;;965369;146;26196;-77
2023/08/10 09:38:26;;;;;;;1.32;1.22;;;44.10;39.70;;;;;;964732;146;26327;-77
2023/08/10 09:41:07;;;;;;;1.52;1.42;;;44.20;39.10;;;;;;963909;147;26244;-77
2023/08/10 09:43:34;;;;;;;1.37;1.25;;;44.30;38.80;;;;;;964840;147;26155;-77
2023/08/10 09:46:07;;;;;;;1.57;1.07;;;44.30;38.60;;;;;;965749;146;26203;-77
2023/08/10 09:48:36;;;;;;;1.25;1.20;;;44.30;38.00;;;;;;966384;147;26318;-76
2023/08/10 09:51:06;;;;;;;1.05;1.05;;;44.20;37.80;;;;;;964871;145;26254;-77
2023/08/10 09:53:32;;;;;;;1.98;1.37;;;44.10;37.30;;;;;;965202;147;26172;-77
2023/08/10 09:55:59;;;;;;;1.12;1.02;;;43.90;36.90;;;;;;959438;146;26329;-77
2023/08/10 09:58:25;;;;;;;0.90;0.90;;;43.70;36.90;;;;;;949938;146;26201;-76
2023/08/10 10:00:52;;;;;;;1.25;1.15;;;43.50;36.60;;;;;;950956;146;26269;-77
2023/08/10 10:03:19;;;;;;;1.07;1.07;;;43.20;36.30;;;;;;950934;146;26245;-77
2023/08/10 10:05:45;;;;;;;1.52;1.25;;;42.90;36.00;;;;;;950177;146;26279;-77
2023/08/10 10:08:12;;;;;;;1.15;1.15;;;42.50;36.10;;;;;;951832;150;26174;-76
2023/08/10 10:10:38;;;;;;;1.95;1.10;;;42.10;36.20;;;;;;951375;146;26260;-77
2023/08/10 10:13:08;;;;;;;1.00;1.00;;;41.70;36.30;;;;;;952044;146;26209;-76
2023/08/10 10:15:34;;;;;;;1.30;1.20;;;41.20;35.90;;;;;;951556;146;26287;-77
2023/08/10 10:18:01;;;;;;;1.72;1.27;;;40.80;36.20;;;;;;950664;146;26229;-77
2023/08/10 10:20:28;;;;;;;2.02;1.30;;;40.30;35.90;;;;;;950255;149;26216;-75
2023/08/10 10:22:55;;;;;;;1.35;1.20;;;39.90;36.00;;;;;;951009;146;26321;-76
2023/08/10 10:25:21;;;;;;;1.17;1.15;;;39.40;36.10;;;;;;952053;146;26323;-76
2023/08/10 10:27:47;;;;;;;1.67;1.57;;;38.90;36.20;;;;;;950568;150;26248;-76
2023/08/10 10:30:17;;;;;;;1.00;1.00;;;38.50;36.20;;;;;;948229;146;27287;-75
2023/08/10 10:32:49;;;;;;;1.40;1.30;;;38.00;36.00;;;;;;950528;146;26271;-75
2023/08/10 10:35:23;;;;;;;1.35;1.25;;;37.60;35.90;;;;;;949200;147;28417;-76
2023/08/10 10:37:57;;;;;;;1.10;1.00;;;37.10;36.00;;;;;;949761;146;27326;-76
2023/08/10 10:40:23;;;;;;;1.82;1.40;;;36.60;36.60;;;;;;951623;147;27336;-76
2023/08/10 10:43:08;;;;;;;2.15;1.27;;;36.10;36.80;;;;;;952730;146;27345;-75
2023/08/10 10:45:35;;;;;;;1.65;1.27;;;35.70;37.00;;;;;;948681;146;27356;-76
2023/08/10 10:48:01;;;;;;;1.95;1.47;;;35.20;37.50;;;;;;950534;148;27482;-76
2023/08/10 10:50:31;;;;;;;2.35;1.45;;;34.80;37.70;;;;;;951335;146;27425;-75
2023/08/10 10:52:57;;;;;;;1.22;1.20;;;34.40;37.70;;;;;;952019;147;27311;-78
2023/08/10 10:55:35;;;;;;;1.37;1.30;;;34.10;37.90;;;;;;951544;146;27308;-79
2023/08/10 10:58:02;;;;;;;0.90;0.90;;;33.70;38.00;;;;;;951238;146;27305;-79
2023/08/10 11:00:29;;;;;;;1.32;1.17;;;33.40;38.40;;;;;;950966;146;27445;-77
2023/08/10 11:02:55;;;;;;;1.15;1.15;;;33.10;38.60;;;;;;952502;148;27328;-79
2023/08/10 11:05:22;;;;;;;1.20;1.10;;;32.80;38.90;;;;;;949064;150;27308;-78
2023/08/10 11:07:48;;;;;;;2.60;1.20;;;32.50;39.00;;;;;;952751;148;27291;-78
2023/08/10 11:10:15;;;;;;;1.20;1.15;;;32.30;38.80;;;;;;952530;146;27280;-78
2023/08/10 11:12:41;;;;;;;2.52;1.40;;;32.00;39.60;;;;;;949422;150;27340;-78
2023/08/10 11:15:08;;;;;;;1.40;1.30;;;31.80;39.60;;;;;;951855;150;27620;-79
2023/08/10 11:17:35;;;;;;;2.20;1.30;;;31.60;40.50;;;;;;950328;150;27297;-79
2023/08/10 11:20:03;;;;;;;1.30;1.20;;;31.40;40.00;;;;;;950339;147;27714;-78
2023/08/10 11:22:28;;;;;;;1.50;1.40;;;31.20;40.50;;;;;;950828;150;27387;-79
2023/08/10 11:24:54;;;;;;;1.55;1.30;;;31.10;41.10;;;;;;950762;146;27787;-79
2023/08/10 11:27:21;;;;;;;1.82;1.30;;;30.90;41.40;;;;;;948994;146;27296;-79
2023/08/10 11:29:48;;;;;;;1.50;1.30;;;30.80;41.50;;;;;;951116;146;27354;-78
2023/08/10 11:32:14;;;;;;;2.77;1.32;;;30.70;41.50;;;;;;950941;146;27288;-77
2023/08/10 11:34:41;;;;;;;1.42;1.35;;;30.60;41.60;;;;;;950442;148;27422;-78
2023/08/10 11:37:08;;;;;;;1.10;1.10;;;30.50;41.80;;;;;;951956;146;27411;-78
2023/08/10 11:39:35;;;;;;;1.55;1.17;;;30.40;41.70;;;;;;951917;146;27383;-78
2023/08/10 11:42:01;;;;;;;1.40;1.30;;;30.30;42.00;;;;;;951127;150;27245;-78
2023/08/10 11:44:30;;;;;;;1.70;1.60;;;30.20;42.10;;;;;;951806;148;27461;-77
2023/08/10 11:46:57;;;;;;;1.30;1.20;;;30.10;41.90;;;;;;949744;150;27327;-78
2023/08/10 11:49:23;;;;;;;1.90;1.22;;;30.00;42.10;;;;;;953036;146;27285;-77
2023/08/10 11:51:50;;;;;;;1.70;1.17;;;29.90;42.20;;;;;;950921;148;27322;-77
2023/08/10 11:54:17;;;;;;;1.60;1.50;;;29.90;42.10;;;;;;951661;149;27802;-77
2023/08/10 11:56:44;;;;;;;1.10;1.10;;;29.80;42.00;;;;;;953106;148;27361;-78
2023/08/10 11:59:16;;;;;;;1.50;1.30;;;29.80;41.70;;;;;;948991;146;27256;-77
2023/08/10 12:01:52;;;;;;;2.45;1.15;;;29.70;42.00;;;;;;952852;148;27357;-77
2023/08/10 12:04:18;;;;;;;1.20;1.07;;;29.60;42.10;;;;;;950391;150;27743;-77
2023/08/10 12:06:44;;;;;;;1.57;1.47;;;29.50;42.40;;;;;;953294;148;27311;-78
2023/08/10 12:09:11;;;;;;;1.50;1.10;;;29.50;42.20;;;;;;953117;150;27349;-78
2023/08/10 12:11:37;;;;;;;1.30;1.20;;;29.50;42.30;;;;;;950617;146;27361;-78
2023/08/10 12:14:04;;;;;;;1.57;1.47;;;29.40;42.10;;;;;;951103;149;27389;-76
2023/08/10 12:16:31;;;;;;;1.37;0.85;;;29.30;41.90;;;;;;951284;148;27348;-76
2023/08/10 12:18:57;;;;;;;1.40;1.30;;;29.30;42.00;;;;;;951375;147;27401;-75
2023/08/10 12:21:24;;;;;;;1.30;1.20;;;29.30;42.30;;;;;;951475;150;27425;-74
2023/08/10 12:23:50;;;;;;;2.90;1.47;;;29.30;42.70;;;;;;950282;146;27351;-78
2023/08/10 12:26:17;;;;;;;1.60;1.50;;;29.30;42.70;;;;;;950766;146;27249;-76
2023/08/10 12:28:44;;;;;;;2.05;1.40;;;29.30;42.60;;;;;;950128;146;27311;-78
2023/08/10 12:31:10;;;;;;;1.60;1.50;;;29.30;42.80;;;;;;951855;148;27341;-78
2023/08/10 12:33:37;;;;;;;1.57;1.27;;;29.30;42.60;;;;;;951727;147;27437;-78
2023/08/10 12:36:03;;;;;;;1.20;1.20;;;29.30;42.90;;;;;;952106;146;27402;-78
2023/08/10 12:38:30;;;;;;;1.75;1.40;;;29.30;42.90;;;;;;951268;149;27323;-78
2023/08/10 12:40:56;;;;;;;1.47;1.37;;;29.30;42.80;;;;;;950274;146;27272;-78
2023/08/10 12:43:23;;;;;;;4.12;1.35;;;29.30;42.60;;;;;;951307;146;27406;-78
2023/08/10 12:45:50;;;;;;;1.90;1.40;;;29.40;42.60;;;;;;951922;147;27216;-77
2023/08/10 12:48:16;;;;;;;1.67;1.30;;;29.30;42.70;;;;;;950813;146;27324;-77